sensor_id;sensor_type;location;lat;lon;timestamp;temperature;humidity
54006;DHT22;39919;38.160;-122.260;2023-03-14T00:01:46;17.60;92.20
54006;DHT22;39919;38.160;-122.260;2023-03-14T00:04:15;17.50;92.40
54006;DHT22;39919;38.160;-122.260;2023-03-14T00:06:44;17.50;92.90
54006;DHT22;39919;38.160;-122.260;2023-03-14T00:09:16;17.50;93.20
54006;DHT22;39919;38.160;-122.260;2023-03-14T00:11:46;17.50;93.10
54006;DHT22;39919;38.160;-122.260;2023-03-14T00:14:15;17.50;93.60
54006;DHT22;39919;38.160;-122.260;2023-03-14T00:16:48;17.50;93.90
54006;DHT22;39919;38.160;-122.260;2023-03-14T00:19:17;17.40;93.90
54006;DHT22;39919;38.160;-122.260;2023-03-14T00:21:47;17.50;94.00
54006;DHT22;39919;38.160;-122.260;2023-03-14T00:24:16;17.40;94.20
54006;DHT22;39919;38.160;-122.260;2023-03-14T00:26:45;17.40;94.40
54006;DHT22;39919;38.160;-122.260;2023-03-14T00:29:14;17.40;94.30
54006;DHT22;39919;38.160;-122.260;2023-03-14T00:31:43;17.40;94.70
54006;DHT22;39919;38.160;-122.260;2023-03-14T00:34:14;17.40;94.60
54006;DHT22;39919;38.160;-122.260;2023-03-14T00:36:44;17.40;94.50
54006;DHT22;39919;38.160;-122.260;2023-03-14T00:39:13;17.40;94.40
54006;DHT22;39919;38.160;-122.260;2023-03-14T00:41:43;17.30;94.50
54006;DHT22;39919;38.160;-122.260;2023-03-14T00:44:12;17.30;94.70
54006;DHT22;39919;38.160;-122.260;2023-03-14T00:46:41;17.20;94.90
54006;DHT22;39919;38.160;-122.260;2023-03-14T00:49:10;17.20;95.00
54006;DHT22;39919;38.160;-122.260;2023-03-14T00:51:41;17.20;95.50
54006;DHT22;39919;38.160;-122.260;2023-03-14T00:54:11;17.10;95.70
54006;DHT22;39919;38.160;-122.260;2023-03-14T00:56:40;17.00;95.90
54006;DHT22;39919;38.160;-122.260;2023-03-14T00:59:09;17.00;96.20
54006;DHT22;39919;38.160;-122.260;2023-03-14T01:01:39;16.90;96.40
54006;DHT22;39919;38.160;-122.260;2023-03-14T01:04:08;16.90;96.60
54006;DHT22;39919;38.160;-122.260;2023-03-14T01:06:53;16.80;96.80
54006;DHT22;39919;38.160;-122.260;2023-03-14T01:09:22;16.80;96.80
54006;DHT22;39919;38.160;-122.260;2023-03-14T01:11:52;16.70;96.90
54006;DHT22;39919;38.160;-122.260;2023-03-14T01:14:23;16.70;97.30
54006;DHT22;39919;38.160;-122.260;2023-03-14T01:16:53;16.60;97.60
54006;DHT22;39919;38.160;-122.260;2023-03-14T01:19:27;16.60;97.90
54006;DHT22;39919;38.160;-122.260;2023-03-14T01:21:58;16.60;98.20
54006;DHT22;39919;38.160;-122.260;2023-03-14T01:24:28;16.50;98.30
54006;DHT22;39919;38.160;-122.260;2023-03-14T01:26:57;16.50;98.40
54006;DHT22;39919;38.160;-122.260;2023-03-14T01:29:26;16.40;98.70
54006;DHT22;39919;38.160;-122.260;2023-03-14T01:31:55;16.50;98.80
54006;DHT22;39919;38.160;-122.260;2023-03-14T01:34:25;16.40;98.90
54006;DHT22;39919;38.160;-122.260;2023-03-14T01:36:54;16.40;99.10
54006;DHT22;39919;38.160;-122.260;2023-03-14T01:39:25;16.40;99.30
54006;DHT22;39919;38.160;-122.260;2023-03-14T01:41:55;16.30;99.30
54006;DHT22;39919;38.160;-122.260;2023-03-14T01:44:24;16.30;99.50
54006;DHT22;39919;38.160;-122.260;2023-03-14T01:46:53;16.30;99.50
54006;DHT22;39919;38.160;-122.260;2023-03-14T01:49:26;16.20;99.50
54006;DHT22;39919;38.160;-122.260;2023-03-14T01:51:58;16.20;99.60
54006;DHT22;39919;38.160;-122.260;2023-03-14T01:54:33;16.10;99.90
54006;DHT22;39919;38.160;-122.260;2023-03-14T01:57:07;16.10;99.90
54006;DHT22;39919;38.160;-122.260;2023-03-14T01:59:37;16.00;99.90
54006;DHT22;39919;38.160;-122.260;2023-03-14T02:02:08;16.00;99.90
54006;DHT22;39919;38.160;-122.260;2023-03-14T02:04:39;15.90;99.90
54006;DHT22;39919;38.160;-122.260;2023-03-14T02:07:14;15.90;99.90
54006;DHT22;39919;38.160;-122.260;2023-03-14T02:09:47;15.80;99.90
54006;DHT22;39919;38.160;-122.260;2023-03-14T02:12:18;15.80;99.90
54006;DHT22;39919;38.160;-122.260;2023-03-14T02:14:49;15.70;99.90
54006;DHT22;39919;38.160;-122.260;2023-03-14T02:17:18;15.70;99.90
54006;DHT22;39919;38.160;-122.260;2023-03-14T02:20:00;15.60;99.90
54006;DHT22;39919;38.160;-122.260;2023-03-14T02:22:32;15.60;99.90
54006;DHT22;39919;38.160;-122.260;2023-03-14T02:25:08;15.60;99.90
54006;DHT22;39919;38.160;-122.260;2023-03-14T02:27:39;15.50;99.90
54006;DHT22;39919;38.160;-122.260;2023-03-14T02:30:11;15.50;99.90
54006;DHT22;39919;38.160;-122.260;2023-03-14T02:32:43;15.40;99.90
54006;DHT22;39919;38.160;-122.260;2023-03-14T02:35:15;15.40;99.90
54006;DHT22;39919;38.160;-122.260;2023-03-14T02:37:50;15.30;99.90
54006;DHT22;39919;38.160;-122.260;2023-03-14T02:40:20;15.30;99.90
54006;DHT22;39919;38.160;-122.260;2023-03-14T02:42:51;15.30;99.90
54006;DHT22;39919;38.160;-122.260;2023-03-14T02:45:39;15.20;99.90
54006;DHT22;39919;38.160;-122.260;2023-03-14T02:48:13;15.20;99.90
54006;DHT22;39919;38.160;-122.260;2023-03-14T02:50:44;15.20;99.90
54006;DHT22;39919;38.160;-122.260;2023-03-14T02:53:18;15.10;99.90
54006;DHT22;39919;38.160;-122.260;2023-03-14T02:55:48;15.10;99.90
54006;DHT22;39919;38.160;-122.260;2023-03-14T02:58:19;15.00;99.90
54006;DHT22;39919;38.160;-122.260;2023-03-14T03:00:49;15.00;99.90
54006;DHT22;39919;38.160;-122.260;2023-03-14T03:03:18;15.00;99.90
54006;DHT22;39919;38.160;-122.260;2023-03-14T03:05:50;15.00;99.90
54006;DHT22;39919;38.160;-122.260;2023-03-14T03:08:20;15.00;99.90
54006;DHT22;39919;38.160;-122.260;2023-03-14T03:10:50;14.90;99.90
54006;DHT22;39919;38.160;-122.260;2023-03-14T03:13:21;14.90;99.90
54006;DHT22;39919;38.160;-122.260;2023-03-14T03:15:50;14.90;99.90
54006;DHT22;39919;38.160;-122.260;2023-03-14T03:18:20;14.80;99.90
54006;DHT22;39919;38.160;-122.260;2023-03-14T03:20:49;14.80;99.90
54006;DHT22;39919;38.160;-122.260;2023-03-14T03:23:20;14.80;99.90
54006;DHT22;39919;38.160;-122.260;2023-03-14T03:25:50;14.90;99.90
54006;DHT22;39919;38.160;-122.260;2023-03-14T03:28:21;14.80;99.90
54006;DHT22;39919;38.160;-122.260;2023-03-14T03:30:51;14.80;99.90
54006;DHT22;39919;38.160;-122.260;2023-03-14T03:33:20;14.80;99.90
54006;DHT22;39919;38.160;-122.260;2023-03-14T03:35:51;14.80;99.90
54006;DHT22;39919;38.160;-122.260;2023-03-14T03:38:20;14.80;99.90
54006;DHT22;39919;38.160;-122.260;2023-03-14T03:40:49;14.80;99.90
54006;DHT22;39919;38.160;-122.260;2023-03-14T03:43:20;14.80;99.90
54006;DHT22;39919;38.160;-122.260;2023-03-14T03:45:50;14.80;99.90
54006;DHT22;39919;38.160;-122.260;2023-03-14T03:48:19;14.70;99.90
54006;DHT22;39919;38.160;-122.260;2023-03-14T03:50:48;14.70;99.90
54006;DHT22;39919;38.160;-122.260;2023-03-14T03:53:17;14.70;99.90
54006;DHT22;39919;38.160;-122.260;2023-03-14T03:55:46;14.70;99.90
54006;DHT22;39919;38.160;-122.260;2023-03-14T03:58:15;14.70;99.90
54006;DHT22;39919;38.160;-122.260;2023-03-14T04:00:46;14.70;99.90
54006;DHT22;39919;38.160;-122.260;2023-03-14T04:03:15;14.70;99.90
54006;DHT22;39919;38.160;-122.260;2023-03-14T04:05:45;14.60;99.90
54006;DHT22;39919;38.160;-122.260;2023-03-14T04:08:14;14.60;99.90
54006;DHT22;39919;38.160;-122.260;2023-03-14T04:10:43;14.60;99.90
54006;DHT22;39919;38.160;-122.260;2023-03-14T04:13:12;14.60;99.90
54006;DHT22;39919;38.160;-122.260;2023-03-14T04:15:41;14.60;99.90
54006;DHT22;39919;38.160;-122.260;2023-03-14T04:18:12;14.50;99.90
54006;DHT22;39919;38.160;-122.260;2023-03-14T04:20:41;14.50;99.90
54006;DHT22;39919;38.160;-122.260;2023-03-14T04:23:10;14.50;99.90
54006;DHT22;39919;38.160;-122.260;2023-03-14T04:25:39;14.50;99.90
54006;DHT22;39919;38.160;-122.260;2023-03-14T04:28:09;14.50;99.90
54006;DHT22;39919;38.160;-122.260;2023-03-14T04:30:38;14.50;99.90
54006;DHT22;39919;38.160;-122.260;2023-03-14T04:33:07;14.50;99.90
54006;DHT22;39919;38.160;-122.260;2023-03-14T04:35:38;14.40;99.90
54006;DHT22;39919;38.160;-122.260;2023-03-14T04:38:07;14.40;99.90
54006;DHT22;39919;38.160;-122.260;2023-03-14T04:40:37;14.40;99.90
54006;DHT22;39919;38.160;-122.260;2023-03-14T04:43:07;14.40;99.90
54006;DHT22;39919;38.160;-122.260;2023-03-14T04:45:36;14.40;99.90
54006;DHT22;39919;38.160;-122.260;2023-03-14T04:48:05;14.40;99.90
54006;DHT22;39919;38.160;-122.260;2023-03-14T04:50:34;14.40;99.90
54006;DHT22;39919;38.160;-122.260;2023-03-14T04:53:05;14.30;99.90
54006;DHT22;39919;38.160;-122.260;2023-03-14T04:55:34;14.40;99.90
54006;DHT22;39919;38.160;-122.260;2023-03-14T04:58:04;14.30;99.90
54006;DHT22;39919;38.160;-122.260;2023-03-14T05:00:33;14.30;99.90
54006;DHT22;39919;38.160;-122.260;2023-03-14T05:03:02;14.30;99.90
54006;DHT22;39919;38.160;-122.260;2023-03-14T05:05:31;14.30;99.90
54006;DHT22;39919;38.160;-122.260;2023-03-14T05:08:00;14.30;99.90
54006;DHT22;39919;38.160;-122.260;2023-03-14T05:10:33;14.30;99.90
54006;DHT22;39919;38.160;-122.260;2023-03-14T05:13:02;14.30;99.90
54006;DHT22;39919;38.160;-122.260;2023-03-14T05:15:31;14.30;99.90
54006;DHT22;39919;38.160;-122.260;2023-03-14T05:18:01;14.30;99.90
54006;DHT22;39919;38.160;-122.260;2023-03-14T05:20:30;14.30;99.90
54006;DHT22;39919;38.160;-122.260;2023-03-14T05:23:00;14.30;99.90
54006;DHT22;39919;38.160;-122.260;2023-03-14T05:25:30;14.30;99.90
54006;DHT22;39919;38.160;-122.260;2023-03-14T05:27:59;14.40;99.90
54006;DHT22;39919;38.160;-122.260;2023-03-14T05:30:29;14.30;99.90
54006;DHT22;39919;38.160;-122.260;2023-03-14T05:32:59;14.40;99.90
54006;DHT22;39919;38.160;-122.260;2023-03-14T05:35:28;14.40;99.90
54006;DHT22;39919;38.160;-122.260;2023-03-14T05:37:57;14.40;99.90
54006;DHT22;39919;38.160;-122.260;2023-03-14T05:40:26;14.40;99.90
54006;DHT22;39919;38.160;-122.260;2023-03-14T05:42:57;14.40;99.90
54006;DHT22;39919;38.160;-122.260;2023-03-14T05:45:26;14.40;99.90
54006;DHT22;39919;38.160;-122.260;2023-03-14T05:47:55;14.40;99.90
54006;DHT22;39919;38.160;-122.260;2023-03-14T05:50:24;14.40;99.90
54006;DHT22;39919;38.160;-122.260;2023-03-14T05:52:53;14.40;99.90
54006;DHT22;39919;38.160;-122.260;2023-03-14T05:55:23;14.40;99.90
54006;DHT22;39919;38.160;-122.260;2023-03-14T05:57:53;14.40;99.90
54006;DHT22;39919;38.160;-122.260;2023-03-14T06:00:24;14.40;99.90
54006;DHT22;39919;38.160;-122.260;2023-03-14T06:02:53;14.40;99.90
54006;DHT22;39919;38.160;-122.260;2023-03-14T06:05:23;14.40;99.90
54006;DHT22;39919;38.160;-122.260;2023-03-14T06:07:52;14.40;99.90
54006;DHT22;39919;38.160;-122.260;2023-03-14T06:10:21;14.40;99.90
54006;DHT22;39919;38.160;-122.260;2023-03-14T06:12:50;14.40;99.90
54006;DHT22;39919;38.160;-122.260;2023-03-14T06:15:19;14.40;99.90
54006;DHT22;39919;38.160;-122.260;2023-03-14T06:17:53;14.40;99.90
54006;DHT22;39919;38.160;-122.260;2023-03-14T06:20:23;14.40;99.90
54006;DHT22;39919;38.160;-122.260;2023-03-14T06:22:52;14.40;99.90
54006;DHT22;39919;38.160;-122.260;2023-03-14T06:25:21;14.40;99.90
54006;DHT22;39919;38.160;-122.260;2023-03-14T06:27:50;14.40;99.90
54006;DHT22;39919;38.160;-122.260;2023-03-14T06:30:19;14.40;99.90
54006;DHT22;39919;38.160;-122.260;2023-03-14T06:32:50;14.30;99.90
54006;DHT22;39919;38.160;-122.260;2023-03-14T06:35:19;14.40;99.90
54006;DHT22;39919;38.160;-122.260;2023-03-14T06:37:48;14.40;99.90
54006;DHT22;39919;38.160;-122.260;2023-03-14T06:40:18;14.40;99.90
54006;DHT22;39919;38.160;-122.260;2023-03-14T06:42:47;14.30;99.90
54006;DHT22;39919;38.160;-122.260;2023-03-14T06:45:17;14.40;99.90
54006;DHT22;39919;38.160;-122.260;2023-03-14T06:47:46;14.40;99.90
54006;DHT22;39919;38.160;-122.260;2023-03-14T06:50:17;14.40;99.90
54006;DHT22;39919;38.160;-122.260;2023-03-14T06:52:46;14.30;99.90
54006;DHT22;39919;38.160;-122.260;2023-03-14T06:55:15;14.40;99.90
54006;DHT22;39919;38.160;-122.260;2023-03-14T06:57:44;14.30;99.90
54006;DHT22;39919;38.160;-122.260;2023-03-14T07:00:14;14.40;99.90
54006;DHT22;39919;38.160;-122.260;2023-03-14T07:02:44;14.30;99.90
54006;DHT22;39919;38.160;-122.260;2023-03-14T07:05:13;14.30;99.90
54006;DHT22;39919;38.160;-122.260;2023-03-14T07:07:44;14.40;99.90
54006;DHT22;39919;38.160;-122.260;2023-03-14T07:10:13;14.40;99.90
54006;DHT22;39919;38.160;-122.260;2023-03-14T07:12:42;14.30;99.90
54006;DHT22;39919;38.160;-122.260;2023-03-14T07:15:11;14.30;99.90
54006;DHT22;39919;38.160;-122.260;2023-03-14T07:17:40;14.30;99.90
54006;DHT22;39919;38.160;-122.260;2023-03-14T07:20:10;14.30;99.90
54006;DHT22;39919;38.160;-122.260;2023-03-14T07:22:40;14.30;99.90
54006;DHT22;39919;38.160;-122.260;2023-03-14T07:25:11;14.30;99.90
54006;DHT22;39919;38.160;-122.260;2023-03-14T07:27:40;14.30;99.90
54006;DHT22;39919;38.160;-122.260;2023-03-14T07:30:10;14.30;99.90
54006;DHT22;39919;38.160;-122.260;2023-03-14T07:32:39;14.40;99.90
54006;DHT22;39919;38.160;-122.260;2023-03-14T07:35:09;14.40;99.90
54006;DHT22;39919;38.160;-122.260;2023-03-14T07:37:38;14.30;99.90
54006;DHT22;39919;38.160;-122.260;2023-03-14T07:40:10;14.30;99.90
54006;DHT22;39919;38.160;-122.260;2023-03-14T07:42:41;14.30;99.90
54006;DHT22;39919;38.160;-122.260;2023-03-14T07:45:11;14.30;99.90
54006;DHT22;39919;38.160;-122.260;2023-03-14T07:47:40;14.30;99.90
54006;DHT22;39919;38.160;-122.260;2023-03-14T07:50:10;14.30;99.90
54006;DHT22;39919;38.160;-122.260;2023-03-14T07:52:39;14.30;99.90
54006;DHT22;39919;38.160;-122.260;2023-03-14T07:55:11;14.30;99.90
54006;DHT22;39919;38.160;-122.260;2023-03-14T07:57:40;14.30;99.90
54006;DHT22;39919;38.160;-122.260;2023-03-14T08:00:15;14.30;99.90
54006;DHT22;39919;38.160;-122.260;2023-03-14T08:02:45;14.30;99.90
54006;DHT22;39919;38.160;-122.260;2023-03-14T08:05:14;14.30;99.90
54006;DHT22;39919;38.160;-122.260;2023-03-14T08:07:46;14.30;99.90
54006;DHT22;39919;38.160;-122.260;2023-03-14T08:10:17;14.30;99.90
54006;DHT22;39919;38.160;-122.260;2023-03-14T08:12:53;14.30;99.90
54006;DHT22;39919;38.160;-122.260;2023-03-14T08:15:22;14.30;99.90
54006;DHT22;39919;38.160;-122.260;2023-03-14T08:17:52;14.30;99.90
54006;DHT22;39919;38.160;-122.260;2023-03-14T08:20:25;14.30;99.90
54006;DHT22;39919;38.160;-122.260;2023-03-14T08:22:56;14.30;99.90
54006;DHT22;39919;38.160;-122.260;2023-03-14T08:25:31;14.30;99.90
54006;DHT22;39919;38.160;-122.260;2023-03-14T08:28:00;14.30;99.90
54006;DHT22;39919;38.160;-122.260;2023-03-14T08:30:30;14.30;99.90
54006;DHT22;39919;38.160;-122.260;2023-03-14T08:33:00;14.30;99.90
54006;DHT22;39919;38.160;-122.260;2023-03-14T08:35:29;14.20;99.90
54006;DHT22;39919;38.160;-122.260;2023-03-14T08:37:58;14.30;99.90
54006;DHT22;39919;38.160;-122.260;2023-03-14T08:40:29;14.30;99.90
54006;DHT22;39919;38.160;-122.260;2023-03-14T08:42:58;14.30;99.90
54006;DHT22;39919;38.160;-122.260;2023-03-14T08:45:27;14.30;99.90
54006;DHT22;39919;38.160;-122.260;2023-03-14T08:47:58;14.30;99.90
54006;DHT22;39919;38.160;-122.260;2023-03-14T08:50:27;14.30;99.90
54006;DHT22;39919;38.160;-122.260;2023-03-14T08:52:56;14.40;99.90
54006;DHT22;39919;38.160;-122.260;2023-03-14T08:55:29;14.40;99.90
54006;DHT22;39919;38.160;-122.260;2023-03-14T08:57:58;14.40;99.90
54006;DHT22;39919;38.160;-122.260;2023-03-14T09:00:27;14.40;99.90
54006;DHT22;39919;38.160;-122.260;2023-03-14T09:02:57;14.40;99.90
54006;DHT22;39919;38.160;-122.260;2023-03-14T09:05:26;14.40;99.90
54006;DHT22;39919;38.160;-122.260;2023-03-14T09:07:55;14.40;99.90
54006;DHT22;39919;38.160;-122.260;2023-03-14T09:10:24;14.50;99.90
54006;DHT22;39919;38.160;-122.260;2023-03-14T09:12:55;14.50;99.90
54006;DHT22;39919;38.160;-122.260;2023-03-14T09:15:27;14.50;99.90
54006;DHT22;39919;38.160;-122.260;2023-03-14T09:17:56;14.50;99.90
54006;DHT22;39919;38.160;-122.260;2023-03-14T09:20:25;14.60;99.90
54006;DHT22;39919;38.160;-122.260;2023-03-14T09:22:54;14.60;99.90
54006;DHT22;39919;38.160;-122.260;2023-03-14T09:25:23;14.60;99.90
54006;DHT22;39919;38.160;-122.260;2023-03-14T09:27:54;14.60;99.90
54006;DHT22;39919;38.160;-122.260;2023-03-14T09:30:23;14.60;99.90
54006;DHT22;39919;38.160;-122.260;2023-03-14T09:32:52;14.60;99.90
54006;DHT22;39919;38.160;-122.260;2023-03-14T09:35:21;14.60;99.90
54006;DHT22;39919;38.160;-122.260;2023-03-14T09:37:50;14.60;99.90
54006;DHT22;39919;38.160;-122.260;2023-03-14T09:40:20;14.60;99.90
54006;DHT22;39919;38.160;-122.260;2023-03-14T09:42:54;14.60;99.90
54006;DHT22;39919;38.160;-122.260;2023-03-14T09:45:27;14.60;99.90
54006;DHT22;39919;38.160;-122.260;2023-03-14T09:47:58;14.60;99.90
54006;DHT22;39919;38.160;-122.260;2023-03-14T09:50:33;14.60;99.90
54006;DHT22;39919;38.160;-122.260;2023-03-14T09:53:09;14.60;99.90
54006;DHT22;39919;38.160;-122.260;2023-03-14T09:55:40;14.60;99.90
54006;DHT22;39919;38.160;-122.260;2023-03-14T09:58:14;14.60;99.90
54006;DHT22;39919;38.160;-122.260;2023-03-14T10:00:44;14.50;99.90
54006;DHT22;39919;38.160;-122.260;2023-03-14T10:03:29;14.50;99.90
54006;DHT22;39919;38.160;-122.260;2023-03-14T10:06:00;14.60;99.90
54006;DHT22;39919;38.160;-122.260;2023-03-14T10:08:29;14.60;99.90
54006;DHT22;39919;38.160;-122.260;2023-03-14T10:10:58;14.50;99.90
54006;DHT22;39919;38.160;-122.260;2023-03-14T10:13:31;14.50;99.90
54006;DHT22;39919;38.160;-122.260;2023-03-14T10:16:02;14.50;99.90
54006;DHT22;39919;38.160;-122.260;2023-03-14T10:18:33;14.40;99.90
54006;DHT22;39919;38.160;-122.260;2023-03-14T10:21:04;14.50;99.90
54006;DHT22;39919;38.160;-122.260;2023-03-14T10:23:35;14.40;99.90
54006;DHT22;39919;38.160;-122.260;2023-03-14T10:26:12;14.40;99.90
54006;DHT22;39919;38.160;-122.260;2023-03-14T10:28:44;14.40;99.90
54006;DHT22;39919;38.160;-122.260;2023-03-14T10:31:14;14.40;99.90
54006;DHT22;39919;38.160;-122.260;2023-03-14T10:33:58;14.40;99.90
54006;DHT22;39919;38.160;-122.260;2023-03-14T10:36:28;14.40;99.90
54006;DHT22;39919;38.160;-122.260;2023-03-14T10:39:18;14.40;99.90
54006;DHT22;39919;38.160;-122.260;2023-03-14T10:41:53;14.30;99.90
54006;DHT22;39919;38.160;-122.260;2023-03-14T10:44:26;14.30;99.90
54006;DHT22;39919;38.160;-122.260;2023-03-14T10:47:00;14.30;99.90
54006;DHT22;39919;38.160;-122.260;2023-03-14T10:49:35;14.30;99.90
54006;DHT22;39919;38.160;-122.260;2023-03-14T10:52:17;14.30;99.90
54006;DHT22;39919;38.160;-122.260;2023-03-14T10:54:52;14.20;99.90
54006;DHT22;39919;38.160;-122.260;2023-03-14T10:57:22;14.20;99.90
54006;DHT22;39919;38.160;-122.260;2023-03-14T10:59:54;14.20;99.90
54006;DHT22;39919;38.160;-122.260;2023-03-14T11:02:39;14.20;99.90
54006;DHT22;39919;38.160;-122.260;2023-03-14T11:05:22;14.20;99.90
54006;DHT22;39919;38.160;-122.260;2023-03-14T11:07:55;14.20;99.90
54006;DHT22;39919;38.160;-122.260;2023-03-14T11:10:32;14.20;99.90
54006;DHT22;39919;38.160;-122.260;2023-03-14T11:13:11;14.20;99.90
54006;DHT22;39919;38.160;-122.260;2023-03-14T11:15:53;14.20;99.90
54006;DHT22;39919;38.160;-122.260;2023-03-14T11:18:49;14.10;99.90
54006;DHT22;39919;38.160;-122.260;2023-03-14T11:21:23;14.10;99.90
54006;DHT22;39919;38.160;-122.260;2023-03-14T11:24:12;14.10;99.90
54006;DHT22;39919;38.160;-122.260;2023-03-14T11:26:46;14.10;99.90
54006;DHT22;39919;38.160;-122.260;2023-03-14T11:29:21;14.10;99.90
54006;DHT22;39919;38.160;-122.260;2023-03-14T11:31:58;14.10;99.90
54006;DHT22;39919;38.160;-122.260;2023-03-14T11:34:29;14.10;99.90
54006;DHT22;39919;38.160;-122.260;2023-03-14T11:37:06;14.10;99.90
54006;DHT22;39919;38.160;-122.260;2023-03-14T11:39:39;14.10;99.90
54006;DHT22;39919;38.160;-122.260;2023-03-14T11:42:12;14.00;99.90
54006;DHT22;39919;38.160;-122.260;2023-03-14T11:44:46;14.00;99.90
54006;DHT22;39919;38.160;-122.260;2023-03-14T11:47:21;14.00;99.90
54006;DHT22;39919;38.160;-122.260;2023-03-14T11:49:53;14.00;99.90
54006;DHT22;39919;38.160;-122.260;2023-03-14T11:52:29;14.00;99.90
54006;DHT22;39919;38.160;-122.260;2023-03-14T11:55:05;14.00;99.90
54006;DHT22;39919;38.160;-122.260;2023-03-14T11:57:36;14.00;99.90
54006;DHT22;39919;38.160;-122.260;2023-03-14T12:00:12;14.00;99.90
54006;DHT22;39919;38.160;-122.260;2023-03-14T12:02:50;14.00;99.90
54006;DHT22;39919;38.160;-122.260;2023-03-14T12:05:38;14.00;99.90
54006;DHT22;39919;38.160;-122.260;2023-03-14T12:08:33;14.00;99.90
54006;DHT22;39919;38.160;-122.260;2023-03-14T12:11:14;13.90;99.90
54006;DHT22;39919;38.160;-122.260;2023-03-14T12:13:47;13.90;99.90
54006;DHT22;39919;38.160;-122.260;2023-03-14T12:16:35;13.90;99.90
54006;DHT22;39919;38.160;-122.260;2023-03-14T12:19:28;13.90;99.90
54006;DHT22;39919;38.160;-122.260;2023-03-14T12:22:00;13.90;99.90
54006;DHT22;39919;38.160;-122.260;2023-03-14T12:24:33;13.90;99.90
54006;DHT22;39919;38.160;-122.260;2023-03-14T12:27:04;13.80;99.90
54006;DHT22;39919;38.160;-122.260;2023-03-14T12:29:57;13.90;99.90
54006;DHT22;39919;38.160;-122.260;2023-03-14T12:32:27;13.90;99.90
54006;DHT22;39919;38.160;-122.260;2023-03-14T12:35:30;13.90;99.90
54006;DHT22;39919;38.160;-122.260;2023-03-14T12:37:58;13.90;99.90
54006;DHT22;39919;38.160;-122.260;2023-03-14T12:40:31;13.80;99.90
54006;DHT22;39919;38.160;-122.260;2023-03-14T12:43:02;13.80;99.90
54006;DHT22;39919;38.160;-122.260;2023-03-14T12:45:32;13.90;99.90
54006;DHT22;39919;38.160;-122.260;2023-03-14T12:48:10;13.90;99.90
54006;DHT22;39919;38.160;-122.260;2023-03-14T12:50:54;13.90;99.90
54006;DHT22;39919;38.160;-122.260;2023-03-14T12:54:09;13.80;99.90
54006;DHT22;39919;38.160;-122.260;2023-03-14T12:57:03;13.90;99.90
54006;DHT22;39919;38.160;-122.260;2023-03-14T12:59:34;13.80;99.90
54006;DHT22;39919;38.160;-122.260;2023-03-14T13:02:20;13.80;99.90
54006;DHT22;39919;38.160;-122.260;2023-03-14T13:04:52;13.80;99.90
54006;DHT22;39919;38.160;-122.260;2023-03-14T13:10:23;13.80;99.90
54006;DHT22;39919;38.160;-122.260;2023-03-14T13:12:55;13.80;99.90
54006;DHT22;39919;38.160;-122.260;2023-03-14T13:15:30;13.80;99.90
54006;DHT22;39919;38.160;-122.260;2023-03-14T13:18:02;13.80;99.90
54006;DHT22;39919;38.160;-122.260;2023-03-14T13:20:36;13.80;99.90
54006;DHT22;39919;38.160;-122.260;2023-03-14T13:23:20;13.70;99.90
54006;DHT22;39919;38.160;-122.260;2023-03-14T13:25:50;13.70;99.90
54006;DHT22;39919;38.160;-122.260;2023-03-14T13:28:20;13.70;99.90
54006;DHT22;39919;38.160;-122.260;2023-03-14T13:30:55;13.70;99.90
54006;DHT22;39919;38.160;-122.260;2023-03-14T13:33:25;13.70;99.90
54006;DHT22;39919;38.160;-122.260;2023-03-14T13:35:57;13.70;99.90
54006;DHT22;39919;38.160;-122.260;2023-03-14T13:38:29;13.70;99.90
54006;DHT22;39919;38.160;-122.260;2023-03-14T13:41:00;13.70;99.90
54006;DHT22;39919;38.160;-122.260;2023-03-14T13:43:30;13.70;99.90
54006;DHT22;39919;38.160;-122.260;2023-03-14T13:46:03;13.60;99.90
54006;DHT22;39919;38.160;-122.260;2023-03-14T13:48:35;13.60;99.90
54006;DHT22;39919;38.160;-122.260;2023-03-14T13:51:07;13.50;99.90
54006;DHT22;39919;38.160;-122.260;2023-03-14T13:53:46;13.50;99.90
54006;DHT22;39919;38.160;-122.260;2023-03-14T13:56:16;13.50;99.90
54006;DHT22;39919;38.160;-122.260;2023-03-14T13:58:46;13.50;99.90
54006;DHT22;39919;38.160;-122.260;2023-03-14T14:01:18;13.40;99.90
54006;DHT22;39919;38.160;-122.260;2023-03-14T14:03:49;13.40;99.90
54006;DHT22;39919;38.160;-122.260;2023-03-14T14:06:31;13.40;99.90
54006;DHT22;39919;38.160;-122.260;2023-03-14T14:09:09;13.40;99.90
54006;DHT22;39919;38.160;-122.260;2023-03-14T14:11:42;13.40;99.90
54006;DHT22;39919;38.160;-122.260;2023-03-14T14:14:15;13.30;99.90
54006;DHT22;39919;38.160;-122.260;2023-03-14T14:16:47;13.30;99.90
54006;DHT22;39919;38.160;-122.260;2023-03-14T14:19:19;13.30;99.90
54006;DHT22;39919;38.160;-122.260;2023-03-14T14:21:50;13.30;99.90
54006;DHT22;39919;38.160;-122.260;2023-03-14T14:24:22;13.30;99.90
54006;DHT22;39919;38.160;-122.260;2023-03-14T14:26:53;13.30;99.90
54006;DHT22;39919;38.160;-122.260;2023-03-14T14:29:27;13.30;99.90
54006;DHT22;39919;38.160;-122.260;2023-03-14T14:32:08;13.30;99.90
54006;DHT22;39919;38.160;-122.260;2023-03-14T14:34:42;13.30;99.90
54006;DHT22;39919;38.160;-122.260;2023-03-14T14:37:21;13.20;99.90
54006;DHT22;39919;38.160;-122.260;2023-03-14T14:39:54;13.30;99.90
54006;DHT22;39919;38.160;-122.260;2023-03-14T14:42:27;13.20;99.90
54006;DHT22;39919;38.160;-122.260;2023-03-14T14:44:58;13.30;99.90
54006;DHT22;39919;38.160;-122.260;2023-03-14T14:47:29;13.20;99.90
54006;DHT22;39919;38.160;-122.260;2023-03-14T14:50:02;13.20;99.90
54006;DHT22;39919;38.160;-122.260;2023-03-14T14:52:37;13.20;99.90
54006;DHT22;39919;38.160;-122.260;2023-03-14T14:55:18;13.20;99.90
54006;DHT22;39919;38.160;-122.260;2023-03-14T14:57:52;13.20;99.90
54006;DHT22;39919;38.160;-122.260;2023-03-14T15:00:24;13.20;99.90
54006;DHT22;39919;38.160;-122.260;2023-03-14T15:02:54;13.20;99.90
54006;DHT22;39919;38.160;-122.260;2023-03-14T15:05:25;13.10;99.90
54006;DHT22;39919;38.160;-122.260;2023-03-14T15:07:56;13.10;99.90
54006;DHT22;39919;38.160;-122.260;2023-03-14T15:10:27;13.20;99.90
54006;DHT22;39919;38.160;-122.260;2023-03-14T15:12:56;13.20;99.90
54006;DHT22;39919;38.160;-122.260;2023-03-14T15:15:25;13.10;99.90
54006;DHT22;39919;38.160;-122.260;2023-03-14T15:17:55;13.10;99.90
54006;DHT22;39919;38.160;-122.260;2023-03-14T15:20:24;13.10;99.90